PIA451 OPIS-OPSD
Flight info
| Callsign | PIA451 |
|---|---|
| Flight time | 0h 38m |
| Altitude | 33000 |
| Route | BOBAM DCT KAGLO J186 KAPMI DCT BUNGI DCT BIREB |
| Aircraft | A320/M-SDE3FGHIRWY/LB1 |
Departure
| Time | 2026-04-28 17:33 |
|---|---|
| Airport | Islamabad International Airport (OPIS) |
Arrival
| Time | 2026-04-28 18:11 |
|---|---|
| Airport | Skardu International Airport (OPSD) |
| Time | Latitude | Longitude | Altitude | Speed | Heading |
|---|---|---|---|---|---|
| 2026-04-28 17:09 | 33.55376 | 72.83110 | 1773 ft | 0 kts | 326° |
| 2026-04-28 17:09 | 33.55381 | 72.83106 | 1773 ft | 0 kts | 326° |
| 2026-04-28 17:24 | 33.55368 | 72.83116 | 1772 ft | 2 kts | 326° |
| 2026-04-28 17:24 | 33.55354 | 72.83128 | 1770 ft | 2 kts | 326° |
| 2026-04-28 17:24 | 33.55340 | 72.83139 | 1770 ft | 2 kts | 326° |
| 2026-04-28 17:25 | 33.55326 | 72.83151 | 1770 ft | 2 kts | 326° |
| 2026-04-28 17:25 | 33.55306 | 72.83182 | 1772 ft | 2 kts | 279° |
| 2026-04-28 17:25 | 33.55305 | 72.83202 | 1771 ft | 2 kts | 236° |
| 2026-04-28 17:26 | 33.55312 | 72.83214 | 1772 ft | 0 kts | 233° |
| 2026-04-28 17:26 | 33.55308 | 72.83207 | 1771 ft | 3 kts | 233° |
| 2026-04-28 17:27 | 33.55282 | 72.83164 | 1770 ft | 13 kts | 236° |
| 2026-04-28 17:27 | 33.55230 | 72.83075 | 1769 ft | 13 kts | 234° |
| 2026-04-28 17:27 | 33.55174 | 72.83012 | 1770 ft | 9 kts | 182° |
| 2026-04-28 17:27 | 33.55150 | 72.82990 | 1772 ft | 5 kts | 239° |
| 2026-04-28 17:28 | 33.55143 | 72.82929 | 1770 ft | 14 kts | 272° |
| 2026-04-28 17:28 | 33.55173 | 72.82716 | 1768 ft | 12 kts | 280° |
| 2026-04-28 17:28 | 33.55188 | 72.82623 | 1768 ft | 11 kts | 280° |
| 2026-04-28 17:29 | 33.55200 | 72.82543 | 1769 ft | 10 kts | 281° |
| 2026-04-28 17:29 | 33.55222 | 72.82407 | 1768 ft | 22 kts | 281° |
| 2026-04-28 17:29 | 33.55251 | 72.82221 | 1768 ft | 24 kts | 280° |
| 2026-04-28 17:30 | 33.55315 | 72.81803 | 1769 ft | 27 kts | 281° |
| 2026-04-28 17:30 | 33.55386 | 72.81328 | 1769 ft | 31 kts | 281° |
| 2026-04-28 17:30 | 33.55427 | 72.81073 | 1771 ft | 32 kts | 281° |
| 2026-04-28 17:31 | 33.55463 | 72.80834 | 1768 ft | 21 kts | 281° |
| 2026-04-28 17:31 | 33.55353 | 72.80676 | 1766 ft | 16 kts | 190° |
| 2026-04-28 17:32 | 33.55125 | 72.80639 | 1749 ft | 16 kts | 161° |
| 2026-04-28 17:32 | 33.55087 | 72.80761 | 1755 ft | 20 kts | 99° |
| 2026-04-28 17:32 | 33.55042 | 72.81071 | 1756 ft | 69 kts | 101° |
| 2026-04-28 17:32 | 33.54918 | 72.81906 | 1755 ft | 133 kts | 102° |
| 2026-04-28 17:33 | 33.54702 | 72.83195 | 1863 ft | 172 kts | 98° |
| 2026-04-28 17:33 | 33.54478 | 72.84538 | 2775 ft | 162 kts | 96° |
| 2026-04-28 17:33 | 33.54264 | 72.85938 | 3355 ft | 176 kts | 94° |
| 2026-04-28 17:33 | 33.54116 | 72.86920 | 3654 ft | 187 kts | 96° |
| 2026-04-28 17:34 | 33.53793 | 72.89105 | 4030 ft | 216 kts | 98° |
| 2026-04-28 17:34 | 33.53470 | 72.90951 | 4569 ft | 229 kts | 107° |
| 2026-04-28 17:34 | 33.52591 | 72.92637 | 4996 ft | 251 kts | 133° |
| 2026-04-28 17:34 | 33.51243 | 72.94074 | 5527 ft | 267 kts | 142° |
| 2026-04-28 17:35 | 33.49767 | 72.95436 | 6306 ft | 271 kts | 144° |
| 2026-04-28 17:35 | 33.48241 | 72.96817 | 7082 ft | 281 kts | 143° |
| 2026-04-28 17:35 | 33.46668 | 72.98285 | 8002 ft | 285 kts | 142° |
| 2026-04-28 17:35 | 33.45124 | 72.99800 | 8953 ft | 288 kts | 141° |
| 2026-04-28 17:36 | 33.43613 | 73.01354 | 9884 ft | 291 kts | 140° |
| 2026-04-28 17:36 | 33.42097 | 73.03048 | 10378 ft | 310 kts | 131° |
| 2026-04-28 17:36 | 33.41138 | 73.05452 | 10687 ft | 336 kts | 102° |
| 2026-04-28 17:36 | 33.41236 | 73.08359 | 10982 ft | 360 kts | 73° |
| 2026-04-28 17:37 | 33.42461 | 73.10981 | 11319 ft | 376 kts | 46° |
| 2026-04-28 17:37 | 33.44602 | 73.12753 | 11970 ft | 377 kts | 19° |
| 2026-04-28 17:37 | 33.47153 | 73.13460 | 12668 ft | 379 kts | 4° |
| 2026-04-28 17:37 | 33.49798 | 73.13569 | 13273 ft | 383 kts | 354° |
| 2026-04-28 17:38 | 33.52474 | 73.13309 | 13918 ft | 386 kts | 351° |
| 2026-04-28 17:38 | 33.55189 | 73.13029 | 14625 ft | 389 kts | 352° |
| 2026-04-28 17:38 | 33.57872 | 73.12803 | 15205 ft | 395 kts | 353° |
| 2026-04-28 17:38 | 33.60625 | 73.12596 | 15850 ft | 399 kts | 353° |
| 2026-04-28 17:39 | 33.63425 | 73.12630 | 16468 ft | 407 kts | 5° |
| 2026-04-28 17:39 | 33.66173 | 73.13591 | 17110 ft | 416 kts | 20° |
| 2026-04-28 17:39 | 33.71530 | 73.16408 | 18313 ft | 425 kts | 21° |
| 2026-04-28 17:40 | 33.74073 | 73.17769 | 18796 ft | 430 kts | 22° |
| 2026-04-28 17:40 | 33.76837 | 73.19263 | 19186 ft | 438 kts | 23° |
| 2026-04-28 17:40 | 33.79620 | 73.20801 | 19695 ft | 442 kts | 23° |
| 2026-04-28 17:40 | 33.82419 | 73.22352 | 20187 ft | 446 kts | 23° |
| 2026-04-28 17:41 | 33.85252 | 73.23904 | 20709 ft | 448 kts | 23° |
| 2026-04-28 17:41 | 33.88108 | 73.25450 | 21212 ft | 451 kts | 23° |
| 2026-04-28 17:41 | 33.90982 | 73.26995 | 21737 ft | 454 kts | 23° |
| 2026-04-28 17:41 | 33.93876 | 73.28541 | 22178 ft | 457 kts | 23° |
| 2026-04-28 17:42 | 33.96792 | 73.30098 | 22619 ft | 460 kts | 23° |
| 2026-04-28 17:42 | 33.98728 | 73.31134 | 22919 ft | 461 kts | 23° |
| 2026-04-28 17:42 | 34.02671 | 73.33251 | 23492 ft | 465 kts | 23° |
| 2026-04-28 17:42 | 34.05635 | 73.34842 | 23838 ft | 468 kts | 23° |
| 2026-04-28 17:43 | 34.08617 | 73.36444 | 24192 ft | 471 kts | 24° |
| 2026-04-28 17:43 | 34.11620 | 73.38061 | 24581 ft | 473 kts | 24° |
| 2026-04-28 17:43 | 34.14637 | 73.39690 | 24901 ft | 476 kts | 24° |
| 2026-04-28 17:43 | 34.17665 | 73.41324 | 25207 ft | 478 kts | 24° |
| 2026-04-28 17:44 | 34.20703 | 73.42964 | 25522 ft | 480 kts | 24° |
| 2026-04-28 17:44 | 34.23759 | 73.44616 | 25842 ft | 482 kts | 24° |
| 2026-04-28 17:44 | 34.26829 | 73.46281 | 26133 ft | 485 kts | 24° |
| 2026-04-28 17:44 | 34.29907 | 73.47953 | 26429 ft | 486 kts | 24° |
| 2026-04-28 17:45 | 34.33000 | 73.49632 | 26738 ft | 489 kts | 24° |
| 2026-04-28 17:45 | 34.36110 | 73.51316 | 27052 ft | 490 kts | 24° |
| 2026-04-28 17:45 | 34.39225 | 73.53005 | 27343 ft | 492 kts | 24° |
| 2026-04-28 17:45 | 34.42366 | 73.54708 | 27611 ft | 494 kts | 24° |
| 2026-04-28 17:46 | 34.45499 | 73.56398 | 27950 ft | 493 kts | 24° |
| 2026-04-28 17:46 | 34.48633 | 73.58078 | 28302 ft | 493 kts | 24° |
| 2026-04-28 17:46 | 34.51727 | 73.59731 | 28666 ft | 492 kts | 24° |
| 2026-04-28 17:46 | 34.54859 | 73.61404 | 29087 ft | 491 kts | 24° |
| 2026-04-28 17:47 | 34.57981 | 73.63077 | 29485 ft | 490 kts | 25° |
| 2026-04-28 17:47 | 34.61096 | 73.64749 | 29851 ft | 490 kts | 25° |
| 2026-04-28 17:47 | 34.64216 | 73.66426 | 30211 ft | 490 kts | 25° |
| 2026-04-28 17:47 | 34.66315 | 73.67554 | 30423 ft | 490 kts | 25° |
| 2026-04-28 17:48 | 34.70442 | 73.69772 | 30882 ft | 489 kts | 25° |
| 2026-04-28 17:48 | 34.73554 | 73.71447 | 31201 ft | 489 kts | 24° |
| 2026-04-28 17:48 | 34.76658 | 73.73115 | 31539 ft | 489 kts | 24° |
| 2026-04-28 17:48 | 34.79774 | 73.74784 | 31844 ft | 488 kts | 24° |
| 2026-04-28 17:49 | 34.82881 | 73.76449 | 32143 ft | 489 kts | 24° |
| 2026-04-28 17:49 | 34.85994 | 73.78119 | 32470 ft | 489 kts | 24° |
| 2026-04-28 17:49 | 34.89097 | 73.79785 | 32800 ft | 489 kts | 24° |
| 2026-04-28 17:49 | 34.92215 | 73.81459 | 33061 ft | 490 kts | 24° |
| 2026-04-28 17:50 | 34.95345 | 73.83144 | 33113 ft | 493 kts | 24° |
| 2026-04-28 17:50 | 35.01629 | 73.86538 | 33097 ft | 494 kts | 24° |
| 2026-04-28 17:51 | 35.07927 | 73.89942 | 33071 ft | 495 kts | 24° |
| 2026-04-28 17:51 | 35.14224 | 73.93342 | 33070 ft | 494 kts | 24° |
| 2026-04-28 17:52 | 35.20508 | 73.96745 | 33030 ft | 494 kts | 24° |
| 2026-04-28 17:52 | 35.29891 | 74.01847 | 33018 ft | 493 kts | 24° |
| 2026-04-28 17:53 | 35.36128 | 74.05338 | 33022 ft | 493 kts | 29° |
| 2026-04-28 17:54 | 35.45428 | 74.17224 | 33011 ft | 484 kts | 65° |
| 2026-04-28 17:54 | 35.48510 | 74.24573 | 33013 ft | 485 kts | 65° |
| 2026-04-28 17:55 | 35.51612 | 74.31921 | 33012 ft | 485 kts | 65° |
| 2026-04-28 17:55 | 35.54705 | 74.39287 | 32985 ft | 485 kts | 65° |
| 2026-04-28 17:56 | 35.57785 | 74.46665 | 32987 ft | 485 kts | 65° |
| 2026-04-28 17:56 | 35.60868 | 74.54041 | 32871 ft | 486 kts | 65° |
| 2026-04-28 17:57 | 35.62410 | 74.57739 | 32316 ft | 486 kts | 65° |
| 2026-04-28 17:57 | 35.63958 | 74.61442 | 32062 ft | 488 kts | 64° |
| 2026-04-28 17:57 | 35.65564 | 74.65122 | 31829 ft | 489 kts | 63° |
| 2026-04-28 17:57 | 35.67227 | 74.68779 | 31588 ft | 490 kts | 62° |
| 2026-04-28 17:58 | 35.68790 | 74.72503 | 31338 ft | 489 kts | 70° |
| 2026-04-28 17:58 | 35.69816 | 74.76469 | 31092 ft | 486 kts | 81° |
| 2026-04-28 17:58 | 35.70197 | 74.80588 | 30889 ft | 484 kts | 92° |
| 2026-04-28 17:58 | 35.69948 | 74.84685 | 30650 ft | 479 kts | 103° |
| 2026-04-28 17:59 | 35.69142 | 74.88640 | 30420 ft | 476 kts | 110° |
| 2026-04-28 17:59 | 35.68192 | 74.92544 | 30183 ft | 478 kts | 110° |
| 2026-04-28 17:59 | 35.67243 | 74.96468 | 29922 ft | 475 kts | 109° |
| 2026-04-28 17:59 | 35.66332 | 75.00249 | 29642 ft | 460 kts | 109° |
| 2026-04-28 18:00 | 35.65431 | 75.04006 | 29367 ft | 446 kts | 109° |
| 2026-04-28 18:00 | 35.64566 | 75.07612 | 29108 ft | 432 kts | 110° |
| 2026-04-28 18:00 | 35.63740 | 75.11051 | 28913 ft | 407 kts | 110° |
| 2026-04-28 18:00 | 35.62954 | 75.14304 | 28579 ft | 390 kts | 110° |
| 2026-04-28 18:01 | 35.62183 | 75.17465 | 27850 ft | 384 kts | 110° |
| 2026-04-28 18:01 | 35.61411 | 75.20593 | 26976 ft | 383 kts | 110° |
| 2026-04-28 18:01 | 35.60646 | 75.23685 | 26083 ft | 383 kts | 110° |
| 2026-04-28 18:01 | 35.59763 | 75.26817 | 25168 ft | 382 kts | 116° |
| 2026-04-28 18:02 | 35.58587 | 75.29745 | 23899 ft | 388 kts | 124° |
| 2026-04-28 18:02 | 35.57031 | 75.32536 | 22095 ft | 403 kts | 131° |
| 2026-04-28 18:02 | 35.55100 | 75.35065 | 20601 ft | 409 kts | 140° |
| 2026-04-28 18:02 | 35.52911 | 75.37198 | 19910 ft | 392 kts | 146° |
| 2026-04-28 18:03 | 35.50651 | 75.38991 | 18960 ft | 384 kts | 149° |
| 2026-04-28 18:03 | 35.48418 | 75.40697 | 18002 ft | 380 kts | 149° |
| 2026-04-28 18:03 | 35.46191 | 75.42385 | 16944 ft | 369 kts | 149° |
| 2026-04-28 18:03 | 35.44032 | 75.44018 | 15891 ft | 353 kts | 148° |
| 2026-04-28 18:04 | 35.42674 | 75.45040 | 15258 ft | 344 kts | 148° |
| 2026-04-28 18:04 | 35.40708 | 75.46510 | 14856 ft | 317 kts | 149° |
| 2026-04-28 18:04 | 35.38878 | 75.47855 | 14289 ft | 301 kts | 149° |
| 2026-04-28 18:04 | 35.37105 | 75.49137 | 13659 ft | 290 kts | 150° |
| 2026-04-28 18:05 | 35.34830 | 75.50751 | 12663 ft | 280 kts | 150° |
| 2026-04-28 18:05 | 35.33701 | 75.51538 | 12212 ft | 275 kts | 151° |
| 2026-04-28 18:05 | 35.31573 | 75.53011 | 11663 ft | 256 kts | 151° |
| 2026-04-28 18:05 | 35.30603 | 75.53827 | 11336 ft | 248 kts | 134° |
| 2026-04-28 18:06 | 35.29852 | 75.55632 | 10889 ft | 236 kts | 94° |
| 2026-04-28 18:06 | 35.30204 | 75.57484 | 10876 ft | 219 kts | 55° |
| 2026-04-28 18:06 | 35.31345 | 75.58559 | 10714 ft | 205 kts | 16° |
| 2026-04-28 18:06 | 35.32716 | 75.58598 | 10443 ft | 197 kts | 341° |
| 2026-04-28 18:07 | 35.33875 | 75.57805 | 10258 ft | 186 kts | 323° |
| 2026-04-28 18:07 | 35.34887 | 75.56899 | 10126 ft | 177 kts | 321° |
| 2026-04-28 18:07 | 35.35840 | 75.55967 | 9914 ft | 173 kts | 318° |
| 2026-04-28 18:07 | 35.36726 | 75.55003 | 9663 ft | 169 kts | 315° |
| 2026-04-28 18:08 | 35.37566 | 75.54017 | 9456 ft | 165 kts | 313° |
| 2026-04-28 18:08 | 35.38366 | 75.53033 | 9234 ft | 161 kts | 313° |
| 2026-04-28 18:08 | 35.39239 | 75.52187 | 9043 ft | 160 kts | 333° |
| 2026-04-28 18:08 | 35.40302 | 75.51855 | 9039 ft | 158 kts | 355° |
| 2026-04-28 18:09 | 35.41395 | 75.51658 | 9065 ft | 160 kts | 326° |
| 2026-04-28 18:09 | 35.41899 | 75.50571 | 9072 ft | 153 kts | 261° |
| 2026-04-28 18:09 | 35.41338 | 75.49549 | 8786 ft | 154 kts | 202° |
| 2026-04-28 18:09 | 35.40260 | 75.49462 | 8532 ft | 159 kts | 170° |
| 2026-04-28 18:10 | 35.39215 | 75.49862 | 8294 ft | 161 kts | 152° |
| 2026-04-28 18:10 | 35.38233 | 75.50531 | 8086 ft | 162 kts | 148° |
| 2026-04-28 18:10 | 35.37267 | 75.51257 | 7903 ft | 164 kts | 148° |
| 2026-04-28 18:10 | 35.36302 | 75.51994 | 7679 ft | 164 kts | 147° |
| 2026-04-28 18:11 | 35.35340 | 75.52741 | 7424 ft | 164 kts | 150° |
| 2026-04-28 18:11 | 35.34417 | 75.53465 | 7351 ft | 146 kts | 148° |
| 2026-04-28 18:11 | 35.33663 | 75.54050 | 7344 ft | 109 kts | 148° |
| 2026-04-28 18:11 | 35.33269 | 75.54365 | 7346 ft | 12 kts | 159° |
| 2026-04-28 18:12 | 35.33241 | 75.54334 | 7346 ft | 6 kts | 244° |
| 2026-04-28 18:12 | 35.33207 | 75.54267 | 7345 ft | 13 kts | 236° |
| 2026-04-28 18:12 | 35.33147 | 75.54157 | 7346 ft | 16 kts | 236° |
| 2026-04-28 18:12 | 35.33104 | 75.54078 | 7343 ft | 5 kts | 236° |
| 2026-04-28 18:13 | 35.33103 | 75.54076 | 7343 ft | 0 kts | 236° |
| 2026-04-28 18:16 | 35.33074 | 75.54087 | 7344 ft | 8 kts | 147° |